Time,TemperatureF,DewpointF,PressureIn,WindDirection,WindDirectionDegrees,WindSpeedMPH,WindSpeedGustMPH,Humidity,HourlyPrecipIn,Conditions,Clouds,dailyrainin,SoftwareType,DateUTC
2013-01-23 00:02:00,9.0,-20.5,29.26,NNE,29,0.0,0.0,24,0.00,,,0.00,VWS V14.01,2013-01-23 05:02:00,
2013-01-23 00:04:00,9.0,-20.5,29.26,North,0,0.0,4.0,24,0.00,,,0.00,VWS V14.01,2013-01-23 05:04:00,
2013-01-23 00:05:00,9.0,-20.5,29.26,NE,51,0.0,0.0,24,0.00,,,0.00,VWS V14.01,2013-01-23 05:05:00,
2013-01-23 00:10:00,9.0,-20.5,29.26,East,83,0.0,0.0,24,0.00,,,0.00,VWS V14.01,2013-01-23 05:10:00,
2013-01-23 00:16:00,9.0,-20.5,29.26,East,82,0.0,4.5,24,0.00,,,0.00,VWS V14.01,2013-01-23 05:16:00,
2013-01-23 00:21:00,8.8,-20.6,29.26,WNW,282,0.0,5.8,24,0.00,,,0.00,VWS V14.01,2013-01-23 05:21:00,
2013-01-23 00:27:00,8.6,-20.8,29.26,NNW,340,4.9,4.9,24,0.00,,,0.00,VWS V14.01,2013-01-23 05:27:00,
2013-01-23 00:32:00,8.6,-20.8,29.26,East,79,0.0,0.0,24,0.00,,,0.00,VWS V14.01,2013-01-23 05:32:00,
2013-01-23 00:38:00,8.6,-20.8,29.26,North,0,0.0,3.6,24,0.00,,,0.00,VWS V14.01,2013-01-23 05:38:00,
2013-01-23 00:44:00,8.8,-20.6,29.26,South,185,2.7,3.6,24,0.00,,,0.00,VWS V14.01,2013-01-23 05:44:00,
2013-01-23 00:49:00,8.6,-20.8,29.26,East,99,0.0,3.1,24,0.00,,,0.00,VWS V14.01,2013-01-23 05:49:00,
2013-01-23 00:55:00,8.6,-20.8,29.26,ESE,123,3.6,3.6,24,0.00,,,0.00,VWS V14.01,2013-01-23 05:55:00,
2013-01-23 01:00:00,8.6,-20.8,29.26,North,351,0.0,3.6,24,0.00,,,0.00,VWS V14.01,2013-01-23 06:00:00,
2013-01-23 01:06:00,8.4,-20.9,29.26,SE,139,0.0,0.0,24,0.00,,,0.00,VWS V14.01,2013-01-23 06:06:00,
2013-01-23 01:11:00,8.4,-20.9,29.26,NNW,329,4.9,4.9,24,0.00,,,0.00,VWS V14.01,2013-01-23 06:11:00,
2013-01-23 01:16:00,8.4,-20.9,29.26,North,351,0.0,0.0,24,0.00,,,0.00,VWS V14.01,2013-01-23 06:16:00,
2013-01-23 01:22:00,8.2,-21.1,29.26,ENE,76,0.0,3.1,24,0.00,,,0.00,VWS V14.01,2013-01-23 06:22:00,
2013-01-23 01:28:00,8.4,-20.9,29.26,ENE,69,0.0,0.0,24,0.00,,,0.00,VWS V14.01,2013-01-23 06:28:00,
2013-01-23 01:34:00,8.4,-20.9,29.26,NNE,31,0.0,0.0,24,0.00,,,0.00,VWS V14.01,2013-01-23 06:34:00,
2013-01-23 01:39:00,8.4,-20.9,29.26,East,86,0.0,2.7,24,0.00,,,0.00,VWS V14.01,2013-01-23 06:39:00,
2013-01-23 01:45:00,8.4,-20.9,29.26,SE,124,0.0,0.0,24,0.00,,,0.00,VWS V14.01,2013-01-23 06:45:00,
2013-01-23 01:50:00,8.4,-20.9,29.26,ENE,70,3.6,5.8,24,0.00,,,0.00,VWS V14.01,2013-01-23 06:50:00,
2013-01-23 01:56:00,8.2,-21.1,29.26,North,351,0.0,0.0,24,0.00,,,0.00,VWS V14.01,2013-01-23 06:56:00,
2013-01-23 02:01:00,8.2,-21.1,29.26,WNW,302,0.0,0.0,24,0.00,,,0.00,VWS V14.01,2013-01-23 07:01:00,
2013-01-23 02:07:00,8.2,-21.1,29.26,SE,139,0.0,0.0,24,0.00,,,0.00,VWS V14.01,2013-01-23 07:07:00,
2013-01-23 02:13:00,8.2,-21.1,29.26,SSE,158,0.0,4.0,24,0.00,,,0.00,VWS V14.01,2013-01-23 07:13:00,
2013-01-23 02:18:00,8.2,-21.1,29.26,ESE,104,0.0,3.1,24,0.00,,,0.00,VWS V14.01,2013-01-23 07:18:00,
2013-01-23 02:24:00,8.2,-21.1,29.26,East,83,0.0,0.0,24,0.00,,,0.00,VWS V14.01,2013-01-23 07:24:00,
2013-01-23 02:29:00,8.1,-21.2,29.26,NE,51,0.0,0.0,24,0.00,,,0.00,VWS V14.01,2013-01-23 07:29:00,
2013-01-23 02:35:00,8.1,-21.2,29.26,West,276,0.0,0.0,24,0.00,,,0.00,VWS V14.01,2013-01-23 07:35:00,
2013-01-23 02:40:00,8.1,-21.2,29.26,SSW,205,0.0,0.0,24,0.00,,,0.00,VWS V14.01,2013-01-23 07:40:00,
2013-01-23 02:46:00,8.2,-21.1,29.29,NNE,24,0.0,0.0,24,0.00,,,0.00,VWS V14.01,2013-01-23 07:46:00,
2013-01-23 02:51:00,8.1,-21.2,29.29,NW,315,3.6,3.6,24,0.00,,,0.00,VWS V14.01,2013-01-23 07:51:00,
2013-01-23 02:57:00,7.9,-21.4,29.29,SSE,149,0.0,0.0,24,0.00,,,0.00,VWS V14.01,2013-01-23 07:57:00,
2013-01-23 03:02:00,7.9,-21.4,29.29,NE,42,0.0,0.0,24,0.00,,,0.00,VWS V14.01,2013-01-23 08:02:00,
2013-01-23 03:08:00,7.9,-21.4,29.29,NW,304,0.0,4.0,24,0.00,,,0.00,VWS V14.01,2013-01-23 08:08:00,
2013-01-23 03:14:00,7.9,-21.4,29.29,WNW,297,0.0,0.0,24,0.00,,,0.00,VWS V14.01,2013-01-23 08:14:00,
2013-01-23 03:19:00,7.9,-21.4,29.29,ESE,114,0.0,0.0,24,0.00,,,0.00,VWS V14.01,2013-01-23 08:19:00,
2013-01-23 03:25:00,7.9,-21.4,29.29,NNW,333,0.0,4.0,24,0.00,,,0.00,VWS V14.01,2013-01-23 08:25:00,
2013-01-23 03:30:00,7.7,-21.6,29.29,ESE,120,0.0,0.0,24,0.00,,,0.00,VWS V14.01,2013-01-23 08:30:00,
2013-01-23 03:36:00,7.9,-21.4,29.29,ESE,117,3.6,3.6,24,0.00,,,0.00,VWS V14.01,2013-01-23 08:36:00,
2013-01-23 03:42:00,7.7,-21.6,29.29,NNW,333,0.0,0.0,24,0.00,,,0.00,VWS V14.01,2013-01-23 08:42:00,
2013-01-23 03:48:00,7.7,-21.6,29.29,NNW,337,0.0,4.5,24,0.00,,,0.00,VWS V14.01,2013-01-23 08:48:00,
2013-01-23 03:54:00,7.9,-21.4,29.29,East,99,0.0,2.7,24,0.00,,,0.00,VWS V14.01,2013-01-23 08:54:00,
2013-01-23 03:59:00,7.9,-21.4,29.26,SSE,149,0.0,4.0,24,0.00,,,0.00,VWS V14.01,2013-01-23 08:59:00,
2013-01-23 04:05:00,7.9,-21.4,29.26,North,0,0.0,0.0,24,0.00,,,0.00,VWS V14.01,2013-01-23 09:05:00,
2013-01-23 04:10:00,7.9,-21.4,29.26,SE,142,0.0,0.0,24,0.00,,,0.00,VWS V14.01,2013-01-23 09:10:00,
2013-01-23 04:16:00,7.9,-21.4,29.26,WNW,302,0.0,0.0,24,0.00,,,0.00,VWS V14.01,2013-01-23 09:16:00,
2013-01-23 04:21:00,7.9,-21.4,29.26,South,186,0.0,0.0,24,0.00,,,0.00,VWS V14.01,2013-01-23 09:21:00,
2013-01-23 04:27:00,7.9,-21.4,29.26,SSW,198,0.0,0.0,24,0.00,,,0.00,VWS V14.01,2013-01-23 09:27:00,
2013-01-23 04:32:00,7.9,-21.4,29.26,SSE,160,0.0,0.0,24,0.00,,,0.00,VWS V14.01,2013-01-23 09:32:00,
2013-01-23 04:38:00,7.9,-21.4,29.26,WNW,298,0.0,3.6,24,0.00,,,0.00,VWS V14.01,2013-01-23 09:38:00,
2013-01-23 04:44:00,7.7,-21.6,29.26,SE,125,0.0,0.0,24,0.00,,,0.00,VWS V14.01,2013-01-23 09:44:00,
2013-01-23 04:49:00,7.7,-21.6,29.26,East,90,0.0,0.0,24,0.00,,,0.00,VWS V14.01,2013-01-23 09:49:00,
2013-01-23 04:55:00,7.7,-21.6,29.26,ESE,110,0.0,0.0,24,0.00,,,0.00,VWS V14.01,2013-01-23 09:55:00,
2013-01-23 05:00:00,7.7,-21.6,29.29,NNW,333,0.0,3.6,24,0.00,,,0.00,VWS V14.01,2013-01-23 10:00:00,
2013-01-23 05:06:00,7.5,-21.7,29.29,South,172,0.0,0.0,24,0.00,,,0.00,VWS V14.01,2013-01-23 10:06:00,
2013-01-23 05:11:00,7.7,-21.6,29.29,North,351,0.0,0.0,24,0.00,,,0.00,VWS V14.01,2013-01-23 10:11:00,
2013-01-23 05:17:00,7.5,-21.7,29.29,ENE,76,0.0,0.0,24,0.00,,,0.00,VWS V14.01,2013-01-23 10:17:00,
2013-01-23 05:23:00,7.7,-21.6,29.29,SSE,149,0.0,0.0,24,0.00,,,0.00,VWS V14.01,2013-01-23 10:23:00,
2013-01-23 05:28:00,7.7,-21.6,29.29,NNW,333,0.0,0.0,24,0.00,,,0.00,VWS V14.01,2013-01-23 10:28:00,
2013-01-23 05:33:00,7.5,-21.7,29.29,ENE,67,3.6,3.6,24,0.00,,,0.00,VWS V14.01,2013-01-23 10:33:00,
2013-01-23 05:39:00,7.5,-21.7,29.29,NNE,28,0.0,0.0,24,0.00,,,0.00,VWS V14.01,2013-01-23 10:39:00,
2013-01-23 05:45:00,7.5,-21.7,29.29,ESE,108,0.0,0.0,24,0.00,,,0.00,VWS V14.01,2013-01-23 10:45:00,
2013-01-23 05:50:00,7.5,-21.7,29.29,SE,127,0.0,3.6,24,0.00,,,0.00,VWS V14.01,2013-01-23 10:50:00,
2013-01-23 05:56:00,7.2,-22.0,29.29,SSE,147,0.0,0.0,24,0.00,,,0.00,VWS V14.01,2013-01-23 10:56:00,
2013-01-23 06:01:00,7.3,-21.9,29.29,ESE,102,0.0,0.0,24,0.00,,,0.00,VWS V14.01,2013-01-23 11:01:00,
2013-01-23 06:07:00,7.5,-21.7,29.29,North,351,0.0,0.0,24,0.00,,,0.00,VWS V14.01,2013-01-23 11:07:00,
2013-01-23 06:12:00,7.5,-21.7,29.29,NNW,342,0.0,0.0,24,0.00,,,0.00,VWS V14.01,2013-01-23 11:12:00,
2013-01-23 06:18:00,7.5,-21.7,29.29,NNE,17,0.0,2.7,24,0.00,,,0.00,VWS V14.01,2013-01-23 11:18:00,
2013-01-23 06:24:00,7.5,-21.7,29.29,WNW,298,0.0,0.0,24,0.00,,,0.00,VWS V14.01,2013-01-23 11:24:00,
2013-01-23 06:29:00,7.3,-21.9,29.29,North,351,0.0,0.0,24,0.00,,,0.00,VWS V14.01,2013-01-23 11:29:00,
2013-01-23 06:35:00,7.2,-22.0,29.29,ENE,68,0.0,4.5,24,0.00,,,0.00,VWS V14.01,2013-01-23 11:35:00,
2013-01-23 06:40:00,7.0,-22.2,29.29,NNE,19,0.0,0.0,24,0.00,,,0.00,VWS V14.01,2013-01-23 11:40:00,
2013-01-23 06:45:00,7.2,-22.0,29.29,WSW,247,0.0,0.0,24,0.00,,,0.00,VWS V14.01,2013-01-23 11:45:00,
2013-01-23 06:51:00,7.0,-22.2,29.29,ESE,104,0.0,0.0,24,0.00,,,0.00,VWS V14.01,2013-01-23 11:51:00,
2013-01-23 06:57:00,7.0,-22.2,29.29,ESE,121,0.0,0.0,24,0.00,,,0.00,VWS V14.01,2013-01-23 11:57:00,
2013-01-23 07:02:00,7.0,-22.2,29.29,SE,128,0.0,0.0,24,0.00,,,0.00,VWS V14.01,2013-01-23 12:02:00,
2013-01-23 07:08:00,6.8,-22.3,29.29,South,182,0.0,0.0,24,0.00,,,0.00,VWS V14.01,2013-01-23 12:08:00,
2013-01-23 07:14:00,6.8,-22.3,29.29,East,100,0.0,0.0,24,0.00,,,0.00,VWS V14.01,2013-01-23 12:14:00,
2013-01-23 07:19:00,6.8,-22.3,29.29,NNE,18,0.0,0.0,24,0.00,,,0.00,VWS V14.01,2013-01-23 12:19:00,
2013-01-23 07:25:00,6.8,-22.3,29.29,NE,41,0.0,0.0,24,0.00,,,0.00,VWS V14.01,2013-01-23 12:25:00,
2013-01-23 07:30:00,7.0,-22.2,29.29,ENE,63,0.0,0.0,24,0.00,,,0.00,VWS V14.01,2013-01-23 12:30:00,
2013-01-23 07:36:00,7.2,-22.0,29.29,ENE,63,0.0,0.0,24,0.00,,,0.00,VWS V14.01,2013-01-23 12:36:00,
2013-01-23 07:41:00,7.5,-21.7,29.29,SE,126,0.0,0.0,24,0.00,,,0.00,VWS V14.01,2013-01-23 12:41:00,
2013-01-23 07:47:00,7.7,-21.6,29.29,North,351,0.0,2.7,24,0.00,,,0.00,VWS V14.01,2013-01-23 12:47:00,
2013-01-23 07:52:00,7.9,-21.4,29.29,North,0,0.0,0.0,24,0.00,,,0.00,VWS V14.01,2013-01-23 12:52:00,
2013-01-23 07:58:00,8.1,-21.2,29.29,ENE,65,0.0,0.0,24,0.00,,,0.00,VWS V14.01,2013-01-23 12:58:00,
2013-01-23 08:04:00,7.9,-21.4,29.29,North,7,0.0,0.0,24,0.00,,,0.00,VWS V14.01,2013-01-23 13:04:00,
2013-01-23 08:10:00,8.2,-21.1,29.29,NNE,30,0.0,0.0,24,0.00,,,0.00,VWS V14.01,2013-01-23 13:10:00,
2013-01-23 08:16:00,8.8,-20.6,29.29,East,93,0.0,0.0,24,0.00,,,0.00,VWS V14.01,2013-01-23 13:16:00,
2013-01-23 08:21:00,8.8,-20.6,29.29,NNE,24,0.0,0.0,24,0.00,,,0.00,VWS V14.01,2013-01-23 13:21:00,
2013-01-23 08:27:00,9.3,-20.2,29.29,NNW,344,0.0,0.0,24,0.00,,,0.00,VWS V14.01,2013-01-23 13:27:00,
2013-01-23 08:32:00,9.5,-20.0,29.32,SE,131,0.0,0.0,24,0.00,,,0.00,VWS V14.01,2013-01-23 13:32:00,
2013-01-23 08:38:00,10.0,-19.5,29.32,ENE,58,0.0,0.0,24,0.00,,,0.00,VWS V14.01,2013-01-23 13:38:00,
2013-01-23 08:44:00,10.2,-19.4,29.32,North,4,0.0,0.0,24,0.00,,,0.00,VWS V14.01,2013-01-23 13:44:00,
2013-01-23 08:49:00,10.4,-19.2,29.32,North,2,0.0,0.0,24,0.00,,,0.00,VWS V14.01,2013-01-23 13:49:00,
2013-01-23 08:55:00,10.8,-18.9,29.32,SE,139,0.0,0.0,24,0.00,,,0.00,VWS V14.01,2013-01-23 13:55:00,
2013-01-23 09:00:00,10.9,-18.8,29.32,East,90,0.0,3.1,24,0.00,,,0.00,VWS V14.01,2013-01-23 14:00:00,
2013-01-23 09:06:00,10.9,-18.8,29.32,ESE,114,0.0,0.0,24,0.00,,,0.00,VWS V14.01,2013-01-23 14:06:00,
2013-01-23 09:11:00,11.5,-18.3,29.32,NNE,16,0.0,3.6,24,0.00,,,0.00,VWS V14.01,2013-01-23 14:11:00,
2013-01-23 09:17:00,11.7,-18.1,29.32,NNW,327,0.0,3.6,24,0.00,,,0.00,VWS V14.01,2013-01-23 14:17:00,
2013-01-23 09:22:00,11.8,-18.0,29.32,East,81,3.1,3.6,24,0.00,,,0.00,VWS V14.01,2013-01-23 14:22:00,
2013-01-23 09:28:00,12.2,-17.7,29.32,ENE,63,0.0,0.0,24,0.00,,,0.00,VWS V14.01,2013-01-23 14:28:00,
2013-01-23 09:34:00,12.2,-17.7,29.32,ESE,106,3.6,3.6,24,0.00,,,0.00,VWS V14.01,2013-01-23 14:34:00,
2013-01-23 09:39:00,12.6,-17.4,29.32,ESE,103,3.1,4.5,24,0.00,,,0.00,VWS V14.01,2013-01-23 14:39:00,
2013-01-23 09:45:00,12.6,-17.4,29.32,NNW,347,3.1,4.9,24,0.00,,,0.00,VWS V14.01,2013-01-23 14:45:00,
2013-01-23 09:50:00,12.7,-17.2,29.32,North,0,0.0,3.6,24,0.00,,,0.00,VWS V14.01,2013-01-23 14:50:00,
2013-01-23 09:56:00,12.7,-17.2,29.32,NNE,12,4.5,4.5,24,0.00,,,0.00,VWS V14.01,2013-01-23 14:56:00,
2013-01-23 10:01:00,13.3,-16.8,29.32,NNW,346,2.7,4.0,24,0.00,,,0.00,VWS V14.01,2013-01-23 15:01:00,
2013-01-23 10:07:00,13.3,-16.8,29.32,North,0,3.6,4.9,24,0.00,,,0.00,VWS V14.01,2013-01-23 15:07:00,
2013-01-23 10:12:00,13.3,-16.8,29.32,NNE,13,2.7,4.0,24,0.00,,,0.00,VWS V14.01,2013-01-23 15:12:00,
2013-01-23 10:18:00,13.5,-16.6,29.32,NW,325,3.1,4.5,24,0.00,,,0.00,VWS V14.01,2013-01-23 15:18:00,
2013-01-23 10:24:00,13.5,-16.6,29.32,North,10,0.0,4.0,24,0.00,,,0.00,VWS V14.01,2013-01-23 15:24:00,
2013-01-23 10:29:00,13.3,-16.8,29.32,NNE,16,4.0,4.9,24,0.00,,,0.00,VWS V14.01,2013-01-23 15:29:00,
2013-01-23 10:35:00,13.6,-16.4,29.32,NNW,345,4.5,5.4,24,0.00,,,0.00,VWS V14.01,2013-01-23 15:35:00,
2013-01-23 10:40:00,13.8,-16.3,29.32,ENE,72,0.0,3.1,24,0.00,,,0.00,VWS V14.01,2013-01-23 15:40:00,
2013-01-23 10:46:00,14.0,-16.1,29.32,NE,46,3.6,4.0,24,0.00,,,0.00,VWS V14.01,2013-01-23 15:46:00,
2013-01-23 10:51:00,14.2,-16.0,29.32,East,80,3.6,3.6,24,0.00,,,0.00,VWS V14.01,2013-01-23 15:51:00,
2013-01-23 10:57:00,14.2,-16.0,29.32,NE,34,0.0,3.6,24,0.00,,,0.00,VWS V14.01,2013-01-23 15:57:00,
2013-01-23 11:02:00,14.2,-16.0,29.32,North,0,0.0,5.8,24,0.00,,,0.00,VWS V14.01,2013-01-23 16:02:00,
2013-01-23 11:08:00,13.6,-16.4,29.32,NE,56,0.0,0.0,24,0.00,,,0.00,VWS V14.01,2013-01-23 16:08:00,
2013-01-23 11:14:00,13.8,-16.3,29.32,ENE,75,0.0,3.6,24,0.00,,,0.00,VWS V14.01,2013-01-23 16:14:00,
2013-01-23 11:19:00,14.2,-16.0,29.29,East,97,2.7,4.5,24,0.00,,,0.00,VWS V14.01,2013-01-23 16:19:00,
2013-01-23 11:25:00,14.4,-15.8,29.29,East,84,0.0,0.0,24,0.00,,,0.00,VWS V14.01,2013-01-23 16:25:00,
2013-01-23 11:30:00,14.4,-15.8,29.29,NE,37,0.0,2.7,24,0.00,,,0.00,VWS V14.01,2013-01-23 16:30:00,
2013-01-23 11:36:00,14.9,-15.4,29.29,SE,146,0.0,4.9,24,0.00,,,0.00,VWS V14.01,2013-01-23 16:36:00,
2013-01-23 11:41:00,15.1,-15.2,29.29,NNE,28,3.6,4.5,24,0.00,,,0.00,VWS V14.01,2013-01-23 16:41:00,
2013-01-23 11:47:00,15.4,-14.9,29.29,East,91,0.0,4.5,24,0.00,,,0.00,VWS V14.01,2013-01-23 16:47:00,
2013-01-23 11:53:00,15.4,-14.9,29.29,ESE,105,3.1,4.0,24,0.00,,,0.00,VWS V14.01,2013-01-23 16:53:00,
2013-01-23 11:58:00,15.6,-14.7,29.29,NNE,21,0.0,0.0,24,0.00,,,0.00,VWS V14.01,2013-01-23 16:58:00,
2013-01-23 12:04:00,16.3,-14.1,29.26,ESE,123,0.0,3.1,24,0.00,,,0.00,VWS V14.01,2013-01-23 17:04:00,
2013-01-23 12:09:00,16.7,-13.8,29.26,NE,48,2.7,2.7,24,0.00,,,0.00,VWS V14.01,2013-01-23 17:09:00,
2013-01-23 12:15:00,16.5,-14.0,29.26,North,2,4.0,5.8,24,0.00,,,0.00,VWS V14.01,2013-01-23 17:15:00,
2013-01-23 12:20:00,16.9,-14.5,29.26,North,5,3.6,4.0,23,0.00,,,0.00,VWS V14.01,2013-01-23 17:20:00,
2013-01-23 12:26:00,16.9,-14.5,29.26,ESE,115,4.0,4.9,23,0.00,,,0.00,VWS V14.01,2013-01-23 17:26:00,
2013-01-23 12:31:00,17.4,-14.0,29.26,North,2,4.9,6.3,23,0.00,,,0.00,VWS V14.01,2013-01-23 17:31:00,
2013-01-23 12:37:00,17.4,-14.0,29.26,NNE,27,3.6,5.4,23,0.00,,,0.00,VWS V14.01,2013-01-23 17:37:00,
2013-01-23 12:43:00,17.1,-14.3,29.26,North,0,0.0,6.3,23,0.00,,,0.00,VWS V14.01,2013-01-23 17:43:00,
2013-01-23 12:48:00,16.7,-14.6,29.26,NNW,334,4.0,6.3,23,0.00,,,0.00,VWS V14.01,2013-01-23 17:48:00,
2013-01-23 12:54:00,16.5,-14.0,29.26,ESE,121,0.0,4.0,24,0.00,,,0.00,VWS V14.01,2013-01-23 17:54:00,
2013-01-23 12:59:00,15.8,-14.6,29.26,NW,325,4.0,5.8,24,0.00,,,0.00,VWS V14.01,2013-01-23 17:59:00,
2013-01-23 13:05:00,15.3,-15.1,29.26,NE,40,0.0,5.4,24,0.00,,,0.00,VWS V14.01,2013-01-23 18:05:00,
2013-01-23 13:10:00,15.3,-15.1,29.26,WNW,303,3.1,3.1,24,0.00,,,0.00,VWS V14.01,2013-01-23 18:10:00,
2013-01-23 13:16:00,14.7,-15.5,29.26,NNW,345,0.0,6.3,24,0.00,,,0.00,VWS V14.01,2013-01-23 18:16:00,
2013-01-23 13:22:00,14.2,-16.0,29.26,ENE,75,0.0,3.6,24,0.00,,,0.00,VWS V14.01,2013-01-23 18:22:00,
2013-01-23 13:27:00,14.2,-16.0,29.26,NNE,22,0.0,5.8,24,0.00,,,0.00,VWS V14.01,2013-01-23 18:27:00,
2013-01-23 13:33:00,14.7,-15.5,29.26,East,85,2.7,4.0,24,0.00,,,0.00,VWS V14.01,2013-01-23 18:33:00,
2013-01-23 13:38:00,14.9,-15.4,29.26,North,5,0.0,4.5,24,0.00,,,0.00,VWS V14.01,2013-01-23 18:38:00,
2013-01-23 13:44:00,15.1,-15.2,29.26,North,3,0.0,0.0,24,0.00,,,0.00,VWS V14.01,2013-01-23 18:44:00,
2013-01-23 13:49:00,15.1,-15.2,29.26,North,0,3.1,5.8,24,0.00,,,0.00,VWS V14.01,2013-01-23 18:49:00,
2013-01-23 13:55:00,15.6,-14.7,29.26,NNW,346,0.0,4.9,24,0.00,,,0.00,VWS V14.01,2013-01-23 18:55:00,
2013-01-23 14:00:00,15.6,-14.7,29.23,North,351,0.0,4.5,24,0.00,,,0.00,VWS V14.01,2013-01-23 19:00:00,
2013-01-23 14:06:00,16.5,-14.0,29.23,NE,37,2.7,4.5,24,0.00,,,0.00,VWS V14.01,2013-01-23 19:06:00,
2013-01-23 14:11:00,16.5,-14.0,29.23,NE,34,0.0,0.0,24,0.00,,,0.00,VWS V14.01,2013-01-23 19:11:00,
2013-01-23 14:17:00,16.5,-14.0,29.23,NNE,17,0.0,3.6,24,0.00,,,0.00,VWS V14.01,2013-01-23 19:17:00,
2013-01-23 14:23:00,16.3,-14.1,29.23,West,278,0.0,5.8,24,0.00,,,0.00,VWS V14.01,2013-01-23 19:23:00,
2013-01-23 14:28:00,16.3,-14.1,29.23,NNW,327,0.0,0.0,24,0.00,,,0.00,VWS V14.01,2013-01-23 19:28:00,
2013-01-23 14:37:00,16.2,-14.3,29.26,ENE,69,0.0,6.9,24,0.00,,,0.00,VWS V14.01,2013-01-23 19:37:00,
2013-01-23 17:43:00,13.1,0.0,29.26,NNW,343,0.0,0.0,0,0.00,,,0.00,VWS V14.01,2013-01-23 22:43:00,
2013-01-23 17:48:00,13.3,0.0,29.26,North,0,0.0,0.0,0,0.00,,,0.00,VWS V14.01,2013-01-23 22:48:00,
2013-01-23 17:53:00,13.3,0.0,29.26,SE,125,5.4,5.4,0,0.00,,,0.00,VWS V14.01,2013-01-23 22:53:00,
2013-01-23 17:59:00,13.1,0.0,29.26,SSE,153,0.0,0.0,0,0.00,,,0.00,VWS V14.01,2013-01-23 22:59:00,
2013-01-23 18:04:00,13.1,0.0,29.26,SSE,153,0.0,0.0,0,0.00,,,0.00,VWS V14.01,2013-01-23 23:04:00,
2013-01-23 18:09:00,12.9,0.0,29.26,NNW,345,0.0,0.0,0,0.00,,,0.00,VWS V14.01,2013-01-23 23:09:00,
2013-01-23 18:14:00,12.7,0.0,29.26,SE,141,0.0,0.0,0,0.00,,,0.00,VWS V14.01,2013-01-23 23:14:00,
2013-01-23 18:19:00,12.7,0.0,29.29,SE,141,0.0,0.0,0,0.00,,,0.00,VWS V14.01,2013-01-23 23:19:00,
2013-01-23 18:24:00,12.6,0.0,29.29,North,3,0.0,3.6,0,0.00,,,0.00,VWS V14.01,2013-01-23 23:24:00,
2013-01-23 18:29:00,12.6,0.0,29.29,North,2,0.0,0.0,0,0.00,,,0.00,VWS V14.01,2013-01-23 23:29:00,
2013-01-23 18:34:00,12.6,0.0,29.29,NE,39,0.0,0.0,0,0.00,,,0.00,VWS V14.01,2013-01-23 23:34:00,
2013-01-23 18:40:00,12.6,0.0,29.29,East,83,0.0,0.0,0,0.00,,,0.00,VWS V14.01,2013-01-23 23:40:00,
2013-01-23 18:45:00,12.4,0.0,29.29,East,83,0.0,0.0,0,0.00,,,0.00,VWS V14.01,2013-01-23 23:45:00,
2013-01-23 18:51:00,12.4,0.0,29.29,East,83,0.0,0.0,0,0.00,,,0.00,VWS V14.01,2013-01-23 23:51:00,
2013-01-23 18:56:00,12.4,0.0,29.29,ESE,117,0.0,0.0,0,0.00,,,0.00,VWS V14.01,2013-01-23 23:56:00,
2013-01-23 19:02:00,12.4,0.0,29.29,South,191,0.0,3.6,0,0.00,,,0.00,VWS V14.01,2013-01-24 00:02:00,
2013-01-23 19:07:00,12.4,0.0,29.29,South,191,0.0,0.0,0,0.00,,,0.00,VWS V14.01,2013-01-24 00:07:00,
2013-01-23 19:13:00,12.0,0.0,29.29,South,191,0.0,0.0,0,0.00,,,0.00,VWS V14.01,2013-01-24 00:13:00,
2013-01-23 19:19:00,12.0,0.0,29.29,South,191,0.0,0.0,0,0.00,,,0.00,VWS V14.01,2013-01-24 00:19:00,
2013-01-23 19:24:00,12.0,0.0,29.29,South,186,0.0,0.0,0,0.00,,,0.00,VWS V14.01,2013-01-24 00:24:00,
2013-01-23 19:30:00,11.8,0.0,29.29,South,187,0.0,0.0,0,0.00,,,0.00,VWS V14.01,2013-01-24 00:30:00,
2013-01-23 19:35:00,11.8,0.0,29.29,South,186,0.0,0.0,0,0.00,,,0.00,VWS V14.01,2013-01-24 00:35:00,
2013-01-23 19:41:00,11.8,0.0,29.29,South,186,0.0,0.0,0,0.00,,,0.00,VWS V14.01,2013-01-24 00:41:00,
2013-01-23 19:46:00,11.8,0.0,29.29,South,186,0.0,0.0,0,0.00,,,0.00,VWS V14.01,2013-01-24 00:46:00,
2013-01-23 19:51:00,11.7,0.0,29.29,South,186,0.0,0.0,0,0.00,,,0.00,VWS V14.01,2013-01-24 00:51:00,
2013-01-23 19:56:00,11.5,0.0,29.29,South,186,0.0,0.0,0,0.00,,,0.00,VWS V14.01,2013-01-24 00:56:00,
2013-01-23 20:02:00,11.1,0.0,29.29,South,186,0.0,0.0,0,0.00,,,0.00,VWS V14.01,2013-01-24 01:02:00,
2013-01-23 20:07:00,11.1,0.0,29.29,South,186,0.0,0.0,0,0.00,,,0.00,VWS V14.01,2013-01-24 01:07:00,
2013-01-23 20:13:00,10.9,0.0,29.29,South,186,0.0,0.0,0,0.00,,,0.00,VWS V14.01,2013-01-24 01:13:00,
2013-01-23 20:19:00,10.9,0.0,29.29,South,186,0.0,0.0,0,0.00,,,0.00,VWS V14.01,2013-01-24 01:19:00,
2013-01-23 20:24:00,10.9,0.0,29.29,South,186,0.0,0.0,0,0.00,,,0.00,VWS V14.01,2013-01-24 01:24:00,
2013-01-23 20:30:00,10.8,0.0,29.26,South,186,0.0,0.0,0,0.00,,,0.00,VWS V14.01,2013-01-24 01:30:00,
2013-01-23 20:35:00,10.8,0.0,29.26,South,186,0.0,0.0,0,0.00,,,0.00,VWS V14.01,2013-01-24 01:35:00,
2013-01-23 20:41:00,10.8,0.0,29.26,South,186,0.0,0.0,0,0.00,,,0.00,VWS V14.01,2013-01-24 01:41:00,
2013-01-23 20:46:00,10.4,0.0,29.26,South,186,0.0,0.0,0,0.00,,,0.00,VWS V14.01,2013-01-24 01:46:00,
2013-01-23 20:52:00,10.4,0.0,29.26,South,186,0.0,0.0,0,0.00,,,0.00,VWS V14.01,2013-01-24 01:52:00,
2013-01-23 20:57:00,10.4,0.0,29.26,South,186,0.0,0.0,0,0.00,,,0.00,VWS V14.01,2013-01-24 01:57:00,
2013-01-23 21:03:00,10.4,0.0,29.26,South,186,0.0,0.0,0,0.00,,,0.00,VWS V14.01,2013-01-24 02:03:00,
2013-01-23 21:09:00,10.2,0.0,29.26,South,186,0.0,0.0,0,0.00,,,0.00,VWS V14.01,2013-01-24 02:09:00,
2013-01-23 21:14:00,10.2,0.0,29.26,South,186,0.0,0.0,0,0.00,,,0.00,VWS V14.01,2013-01-24 02:14:00,
2013-01-23 21:20:00,10.0,0.0,29.26,South,186,0.0,0.0,0,0.00,,,0.00,VWS V14.01,2013-01-24 02:20:00,
2013-01-23 21:25:00,10.0,0.0,29.26,South,186,0.0,0.0,0,0.00,,,0.00,VWS V14.01,2013-01-24 02:25:00,
2013-01-23 21:31:00,9.9,0.0,29.26,South,186,0.0,0.0,0,0.00,,,0.00,VWS V14.01,2013-01-24 02:31:00,
2013-01-23 21:36:00,9.9,0.0,29.26,South,186,0.0,0.0,0,0.00,,,0.00,VWS V14.01,2013-01-24 02:36:00,
2013-01-23 21:42:00,9.9,0.0,29.26,South,186,0.0,0.0,0,0.00,,,0.00,VWS V14.01,2013-01-24 02:42:00,
2013-01-23 21:47:00,9.9,0.0,29.26,South,186,0.0,0.0,0,0.00,,,0.00,VWS V14.01,2013-01-24 02:47:00,
2013-01-23 21:53:00,9.9,0.0,29.26,South,186,0.0,0.0,0,0.00,,,0.00,VWS V14.01,2013-01-24 02:53:00,
2013-01-23 21:59:00,10.0,0.0,29.26,South,186,0.0,0.0,0,0.00,,,0.00,VWS V14.01,2013-01-24 02:59:00,
2013-01-23 22:04:00,10.0,0.0,29.29,South,186,0.0,0.0,0,0.00,,,0.00,VWS V14.01,2013-01-24 03:04:00,
2013-01-23 22:09:00,10.0,0.0,29.29,South,186,0.0,0.0,0,0.00,,,0.00,VWS V14.01,2013-01-24 03:09:00,
2013-01-23 22:15:00,10.2,0.0,29.26,South,186,0.0,0.0,0,0.00,,,0.00,VWS V14.01,2013-01-24 03:15:00,
2013-01-23 22:21:00,10.2,0.0,29.26,South,186,0.0,0.0,0,0.00,,,0.00,VWS V14.01,2013-01-24 03:21:00,
2013-01-23 22:26:00,10.2,0.0,29.26,South,187,0.0,0.0,0,0.00,,,0.00,VWS V14.01,2013-01-24 03:26:00,
2013-01-23 22:32:00,10.2,0.0,29.26,South,186,0.0,0.0,0,0.00,,,0.00,VWS V14.01,2013-01-24 03:32:00,
2013-01-23 22:37:00,9.9,0.0,29.26,South,186,0.0,0.0,0,0.00,,,0.00,VWS V14.01,2013-01-24 03:37:00,
2013-01-23 22:43:00,9.9,0.0,29.26,South,186,0.0,0.0,0,0.00,,,0.00,VWS V14.01,2013-01-24 03:43:00,
2013-01-23 22:49:00,9.7,0.0,29.29,South,186,0.0,0.0,0,0.00,,,0.00,VWS V14.01,2013-01-24 03:49:00,
2013-01-23 22:54:00,9.5,0.0,29.29,South,186,0.0,0.0,0,0.00,,,0.00,VWS V14.01,2013-01-24 03:54:00,
2013-01-23 23:00:00,9.3,0.0,29.26,South,186,0.0,0.0,0,0.00,,,0.00,VWS V14.01,2013-01-24 04:00:00,
2013-01-23 23:05:00,9.3,0.0,29.26,South,186,0.0,0.0,0,0.00,,,0.00,VWS V14.01,2013-01-24 04:05:00,
2013-01-23 23:11:00,9.1,0.0,29.26,South,186,0.0,0.0,0,0.00,,,0.00,VWS V14.01,2013-01-24 04:11:00,
2013-01-23 23:16:00,9.1,0.0,29.29,South,186,0.0,0.0,0,0.00,,,0.00,VWS V14.01,2013-01-24 04:16:00,
2013-01-23 23:21:00,9.3,0.0,29.29,South,186,0.0,0.0,0,0.00,,,0.00,VWS V14.01,2013-01-24 04:21:00,
2013-01-23 23:27:00,9.3,0.0,29.29,South,187,0.0,0.0,0,0.00,,,0.00,VWS V14.01,2013-01-24 04:27:00,
2013-01-23 23:33:00,9.1,0.0,29.26,South,186,0.0,0.0,0,0.00,,,0.00,VWS V14.01,2013-01-24 04:33:00,
2013-01-23 23:39:00,9.1,0.0,29.26,South,186,0.0,0.0,0,0.00,,,0.00,VWS V14.01,2013-01-24 04:39:00,
2013-01-23 23:44:00,9.0,0.0,29.26,South,186,0.0,0.0,0,0.00,,,0.00,VWS V14.01,2013-01-24 04:44:00,
2013-01-23 23:50:00,9.0,0.0,29.26,South,186,0.0,0.0,0,0.00,,,0.00,VWS V14.01,2013-01-24 04:50:00,
2013-01-23 23:55:00,9.0,0.0,29.26,South,186,0.0,0.0,0,0.00,,,0.00,VWS V14.01,2013-01-24 04:55:00,